American Queen — WDG2957 — position and weather

sailwx.info

Track history (hours):
 
Tides and Currents Weather Stations Pressure Air Temp Water Temp Dewpoint Dewpoint Depression Visibility Wind Speed Wind Dir Waves Ship Positions

American Queen

Owner: HMS American Queen Steamboat Company, LLC, Memphis, TN. More information available from US FCC via Universal Licensing System and Coast Guard Vessel Documentation Center.

Last reported at 2018-Jun-30 14:07 UTC. Time now 2018-Jul-22 16:36 UTC.
Position N 33°18' W 091°10'.
Warning: this ship's position is 22 days out of date.

Length 128 m; draft 2.6 m.

Type: Passenger vessel. MMSI: 366950740.

Date/timePositionNaut miles runAvg speedWind from/ knotsBaromVisibWave heightAir tempDewpointWater temp
2018-Jun-30 14:07N 33°18' W 091°10'1 6.8
2018-Jun-30 14:00N 33°17' W 091°09'3 6.4
2018-Jun-30 13:28N 33°14' W 091°07'3 6.2
2018-Jun-30 12:59N 33°12' W 091°05'5 5.4
2018-Jun-30 11:58N 33°07' W 091°08'10 3.4
2018-Jun-30 08:59N 32°57' W 091°06'4 4.5
2018-Jun-30 08:04N 32°53' W 091°05'0 5.2
2018-Jun-30 08:00N 32°53' W 091°05'2 3.3
2018-Jun-30 07:30N 32°52' W 091°07'2 4.6
2018-Jun-30 07:00N 32°50' W 091°09'3 5.3
2018-Jun-30 06:30N 32°48' W 091°09'3 5.7
2018-Jun-30 06:00N 32°45' W 091°09'2 4.7
2018-Jun-30 05:29N 32°44' W 091°06'3 5.6
2018-Jun-30 05:00N 32°43' W 091°03'4 5.6
2018-Jun-30 04:22N 32°41' W 091°06'2 5.6
2018-Jun-30 04:00N 32°40' W 091°08'3 5.0
2018-Jun-30 03:30N 32°37' W 091°09'1 1.2
2018-Jun-30 03:00N 32°37' W 091°09'1 1.8
2018-Jun-30 02:30N 32°36' W 091°08'2 5.0
2018-Jun-30 02:00N 32°34' W 091°06'2 4.8
2018-Jun-30 01:30N 32°32' W 091°06'3 5.5
2018-Jun-30 01:00N 32°29' W 091°07'3 6.5
2018-Jun-30 00:30N 32°27' W 091°04'3 6.1
2018-Jun-30 00:00N 32°26' W 091°01'2 4.7
2018-Jun-29 23:30N 32°24' W 090°60'2 4.9
2018-Jun-29 23:00N 32°21' W 090°59'3 6.1
2018-Jun-29 22:30N 32°21' W 090°56'2 4.0
2018-Jun-29 21:59N 32°21' W 090°53'0 0.1
2018-Jun-29 21:29N 32°21' W 090°53'0 0.0
2018-Jun-29 20:59N 32°21' W 090°53'0 0.0
2018-Jun-29 20:29N 32°21' W 090°53'0 0.0
2018-Jun-29 19:59N 32°21' W 090°53'0 0.0
2018-Jun-29 19:29N 32°21' W 090°53'0 0.0
2018-Jun-29 18:59N 32°21' W 090°53'0 0.0
2018-Jun-29 18:29N 32°21' W 090°53'0 0.0
2018-Jun-29 17:59N 32°21' W 090°53'0 0.0
2018-Jun-29 17:29N 32°21' W 090°53'0 0.0
2018-Jun-29 16:59N 32°21' W 090°53'0 0.0
2018-Jun-29 16:29N 32°21' W 090°53'0 0.0
2018-Jun-29 15:59N 32°21' W 090°53'0 0.0
2018-Jun-29 15:29N 32°21' W 090°53'0 0.0
2018-Jun-29 14:59N 32°21' W 090°53'0 0.0
2018-Jun-29 14:29N 32°21' W 090°53'0 0.0
2018-Jun-29 13:56N 32°21' W 090°53'0 0.0
2018-Jun-29 13:29N 32°21' W 090°53'0 0.0
2018-Jun-29 12:59N 32°21' W 090°53'0 0.0
2018-Jun-29 12:29N 32°21' W 090°53'0 0.0
2018-Jun-29 11:59N 32°21' W 090°53'0 0.0
2018-Jun-29 11:23N 32°21' W 090°53'0 0.0
2018-Jun-29 11:01N 32°21' W 090°53'0 0.3
2018-Jun-29 10:31N 32°21' W 090°53'3 5.6
2018-Jun-29 10:00N 32°18' W 090°55'2 4.0
2018-Jun-29 09:31N 32°17' W 090°56'2 3.9
2018-Jun-29 09:01N 32°16' W 090°58'3 5.3
2018-Jun-29 08:31N 32°13' W 090°59'2 4.0
2018-Jun-29 08:01N 32°11' W 090°60'2 4.0
2018-Jun-29 07:31N 32°09' W 091°00'2 4.3
2018-Jun-29 07:00N 32°07' W 091°01'2 4.1
2018-Jun-29 06:31N 32°08' W 091°03'2 4.7
2018-Jun-29 06:01N 32°08' W 091°06'2 4.8
2018-Jun-29 05:31N 32°06' W 091°05'3 5.7
2018-Jun-29 05:01N 32°03' W 091°03'3 5.6
2018-Jun-29 04:31N 32°01' W 091°05'3 5.0
2018-Jun-29 04:00N 31°59' W 091°07'3 6.1
2018-Jun-29 03:31N 31°59' W 091°11'5 6.3
2018-Jun-29 02:46N 31°54' W 091°12'  
2018-Jun-21 02:32N 31°47' W 091°22'111.8
2018-Jun-21 02:27N 31°48' W 091°21'910.5
2018-Jun-21 01:34N 31°54' W 091°13'211.6
2018-Jun-21 01:25N 31°55' W 091°12'610.2
2018-Jun-21 00:52N 31°59' W 091°07'411.5
2018-Jun-21 00:30N 32°02' W 091°04'510.9
2018-Jun-21 00:00N 32°07' W 091°06'510.1
2018-Jun-20 23:30N 32°08' W 091°01'612.1
2018-Jun-20 23:00N 32°14' W 090°59'611.2
2018-Jun-20 22:30N 32°18' W 090°55'3 6.4
2018-Jun-20 21:59N 32°21' W 090°53'0 0.0
2018-Jun-20 21:29N 32°21' W 090°53'0 0.0
2018-Jun-20 20:59N 32°21' W 090°53'0 0.0
2018-Jun-20 20:29N 32°21' W 090°53'0 0.0
2018-Jun-20 19:59N 32°21' W 090°53'0 0.0
2018-Jun-20 19:29N 32°21' W 090°53'0 0.0
2018-Jun-20 18:59N 32°21' W 090°53'0 0.0
2018-Jun-20 18:29N 32°21' W 090°53'0 0.0
2018-Jun-20 17:59N 32°21' W 090°53'0 0.0
2018-Jun-20 17:29N 32°21' W 090°53'0 0.0
2018-Jun-20 16:56N 32°21' W 090°53'0 0.0
2018-Jun-20 16:29N 32°21' W 090°53'0 0.0
2018-Jun-20 15:59N 32°21' W 090°53'0 0.0
2018-Jun-20 15:29N 32°21' W 090°53'0 0.0
2018-Jun-20 14:56N 32°21' W 090°53'0 0.0
2018-Jun-20 14:29N 32°21' W 090°53'  
Track history (hours):
 
Tides and Currents Weather Stations Pressure Air Temp Water Temp Dewpoint Dewpoint Depression Visibility Wind Speed Wind Dir Waves Ship Positions

American Queen

Owner: HMS American Queen Steamboat Company, LLC, Memphis, TN. More information available from US FCC via Universal Licensing System and Coast Guard Vessel Documentation Center.

Last reported at 2018-Jun-30 14:07 UTC. Time now 2018-Jul-22 16:36 UTC.
Position N 33°18' W 091°10'.
Warning: this ship's position is 22 days out of date.

Length 128 m; draft 2.6 m.

Type: Passenger vessel. MMSI: 366950740.

Date/timePositionNaut miles runAvg speedWind from/ knotsBaromVisibWave heightAir tempDewpointWater temp
2018-Jun-30 14:07N 33°18' W 091°10'1 6.8
2018-Jun-30 14:00N 33°17' W 091°09'3 6.4
2018-Jun-30 13:28N 33°14' W 091°07'3 6.2
2018-Jun-30 12:59N 33°12' W 091°05'5 5.4
2018-Jun-30 11:58N 33°07' W 091°08'10 3.4
2018-Jun-30 08:59N 32°57' W 091°06'4 4.5
2018-Jun-30 08:04N 32°53' W 091°05'0 5.2
2018-Jun-30 08:00N 32°53' W 091°05'2 3.3
2018-Jun-30 07:30N 32°52' W 091°07'2 4.6
2018-Jun-30 07:00N 32°50' W 091°09'3 5.3
2018-Jun-30 06:30N 32°48' W 091°09'3 5.7
2018-Jun-30 06:00N 32°45' W 091°09'2 4.7
2018-Jun-30 05:29N 32°44' W 091°06'3 5.6
2018-Jun-30 05:00N 32°43' W 091°03'4 5.6
2018-Jun-30 04:22N 32°41' W 091°06'2 5.6
2018-Jun-30 04:00N 32°40' W 091°08'3 5.0
2018-Jun-30 03:30N 32°37' W 091°09'1 1.2
2018-Jun-30 03:00N 32°37' W 091°09'1 1.8
2018-Jun-30 02:30N 32°36' W 091°08'2 5.0
2018-Jun-30 02:00N 32°34' W 091°06'2 4.8
2018-Jun-30 01:30N 32°32' W 091°06'3 5.5
2018-Jun-30 01:00N 32°29' W 091°07'3 6.5
2018-Jun-30 00:30N 32°27' W 091°04'3 6.1
2018-Jun-30 00:00N 32°26' W 091°01'2 4.7
2018-Jun-29 23:30N 32°24' W 090°60'2 4.9
2018-Jun-29 23:00N 32°21' W 090°59'3 6.1
2018-Jun-29 22:30N 32°21' W 090°56'2 4.0
2018-Jun-29 21:59N 32°21' W 090°53'0 0.1
2018-Jun-29 21:29N 32°21' W 090°53'0 0.0
2018-Jun-29 20:59N 32°21' W 090°53'0 0.0
2018-Jun-29 20:29N 32°21' W 090°53'0 0.0
2018-Jun-29 19:59N 32°21' W 090°53'0 0.0
2018-Jun-29 19:29N 32°21' W 090°53'0 0.0
2018-Jun-29 18:59N 32°21' W 090°53'0 0.0
2018-Jun-29 18:29N 32°21' W 090°53'0 0.0
2018-Jun-29 17:59N 32°21' W 090°53'0 0.0
2018-Jun-29 17:29N 32°21' W 090°53'0 0.0
2018-Jun-29 16:59N 32°21' W 090°53'0 0.0
2018-Jun-29 16:29N 32°21' W 090°53'0 0.0
2018-Jun-29 15:59N 32°21' W 090°53'0 0.0
2018-Jun-29 15:29N 32°21' W 090°53'0 0.0
2018-Jun-29 14:59N 32°21' W 090°53'0 0.0
2018-Jun-29 14:29N 32°21' W 090°53'0 0.0
2018-Jun-29 13:56N 32°21' W 090°53'0 0.0
2018-Jun-29 13:29N 32°21' W 090°53'0 0.0
2018-Jun-29 12:59N 32°21' W 090°53'0 0.0
2018-Jun-29 12:29N 32°21' W 090°53'0 0.0
2018-Jun-29 11:59N 32°21' W 090°53'0 0.0
2018-Jun-29 11:23N 32°21' W 090°53'0 0.0
2018-Jun-29 11:01N 32°21' W 090°53'0 0.3
2018-Jun-29 10:31N 32°21' W 090°53'3 5.6
2018-Jun-29 10:00N 32°18' W 090°55'2 4.0
2018-Jun-29 09:31N 32°17' W 090°56'2 3.9
2018-Jun-29 09:01N 32°16' W 090°58'3 5.3
2018-Jun-29 08:31N 32°13' W 090°59'2 4.0
2018-Jun-29 08:01N 32°11' W 090°60'2 4.0
2018-Jun-29 07:31N 32°09' W 091°00'2 4.3
2018-Jun-29 07:00N 32°07' W 091°01'2 4.1
2018-Jun-29 06:31N 32°08' W 091°03'2 4.7
2018-Jun-29 06:01N 32°08' W 091°06'2 4.8
2018-Jun-29 05:31N 32°06' W 091°05'3 5.7
2018-Jun-29 05:01N 32°03' W 091°03'3 5.6
2018-Jun-29 04:31N 32°01' W 091°05'3 5.0
2018-Jun-29 04:00N 31°59' W 091°07'3 6.1
2018-Jun-29 03:31N 31°59' W 091°11'5 6.3
2018-Jun-29 02:46N 31°54' W 091°12'  
2018-Jun-21 02:32N 31°47' W 091°22'111.8
2018-Jun-21 02:27N 31°48' W 091°21'910.5
2018-Jun-21 01:34N 31°54' W 091°13'211.6
2018-Jun-21 01:25N 31°55' W 091°12'610.2
2018-Jun-21 00:52N 31°59' W 091°07'411.5
2018-Jun-21 00:30N 32°02' W 091°04'510.9
2018-Jun-21 00:00N 32°07' W 091°06'510.1
2018-Jun-20 23:30N 32°08' W 091°01'612.1
2018-Jun-20 23:00N 32°14' W 090°59'611.2
2018-Jun-20 22:30N 32°18' W 090°55'3 6.4
2018-Jun-20 21:59N 32°21' W 090°53'0 0.0
2018-Jun-20 21:29N 32°21' W 090°53'0 0.0
2018-Jun-20 20:59N 32°21' W 090°53'0 0.0
2018-Jun-20 20:29N 32°21' W 090°53'0 0.0
2018-Jun-20 19:59N 32°21' W 090°53'0 0.0
2018-Jun-20 19:29N 32°21' W 090°53'0 0.0
2018-Jun-20 18:59N 32°21' W 090°53'0 0.0
2018-Jun-20 18:29N 32°21' W 090°53'0 0.0
2018-Jun-20 17:59N 32°21' W 090°53'0 0.0
2018-Jun-20 17:29N 32°21' W 090°53'0 0.0
2018-Jun-20 16:56N 32°21' W 090°53'0 0.0
2018-Jun-20 16:29N 32°21' W 090°53'0 0.0
2018-Jun-20 15:59N 32°21' W 090°53'0 0.0
2018-Jun-20 15:29N 32°21' W 090°53'0 0.0
2018-Jun-20 14:56N 32°21' W 090°53'0 0.0
2018-Jun-20 14:29N 32°21' W 090°53'  

Dump ship's entire track history